createdAt,value
2023-02-24T00:01:02.122Z,6.78
2023-02-24T00:03:36.762Z,8.73
2023-02-24T00:06:11.293Z,7.68
2023-02-24T00:08:43.706Z,6.78
2023-02-24T00:11:18.251Z,6.78
2023-02-24T00:13:51.602Z,6.75
2023-02-24T00:16:24.816Z,8.95
2023-02-24T00:18:57.283Z,6.47
2023-02-24T00:21:29.721Z,7.00
2023-02-24T00:24:02.869Z,8.35
2023-02-24T00:26:35.302Z,7.45
2023-02-24T00:29:10.882Z,6.80
2023-02-24T00:31:43.519Z,6.70
2023-02-24T00:34:16.150Z,6.18
2023-02-24T00:36:48.737Z,6.97
2023-02-24T00:39:29.512Z,7.20
2023-02-24T00:42:04.265Z,6.95
2023-02-24T00:44:39.020Z,6.40
2023-02-24T00:47:12.630Z,7.60
2023-02-24T00:49:46.321Z,6.13
2023-02-24T00:52:20.232Z,10.15
2023-02-24T00:54:52.824Z,5.50
2023-02-24T00:57:25.609Z,6.65
2023-02-24T00:59:59.925Z,4.65
2023-02-24T01:02:32.385Z,5.32
2023-02-24T01:05:05.557Z,6.03
2023-02-24T01:07:38.602Z,6.85
2023-02-24T01:10:11.855Z,6.57
2023-02-24T01:12:49.943Z,5.65
2023-02-24T01:15:23.521Z,6.22
2023-02-24T01:17:55.898Z,5.95
2023-02-24T01:20:29.683Z,5.90
2023-02-24T01:23:02.729Z,5.40
2023-02-24T01:25:35.204Z,4.95
2023-02-24T01:28:10.365Z,5.55
2023-02-24T01:30:43.669Z,4.90
2023-02-24T01:33:16.132Z,4.32
2023-02-24T01:35:48.659Z,5.72
2023-02-24T01:38:22.654Z,3.95
2023-02-24T01:40:58.647Z,4.60
2023-02-24T01:43:31.213Z,5.20
2023-02-24T01:46:05.182Z,5.10
2023-02-24T01:48:37.593Z,5.10
2023-02-24T01:51:12.672Z,5.80
2023-02-24T01:53:48.674Z,3.65
2023-02-24T01:56:21.428Z,4.60
2023-02-24T01:58:53.826Z,4.85
2023-02-24T02:01:28.203Z,4.85
2023-02-24T02:04:09.806Z,3.75
2023-02-24T02:06:42.412Z,4.78
2023-02-24T02:09:16.820Z,4.15
2023-02-24T02:11:49.692Z,4.97
2023-02-24T02:14:27.046Z,5.90
2023-02-24T02:17:14.026Z,4.47
2023-02-24T02:20:21.734Z,3.45
2023-02-24T02:23:27.522Z,4.07
2023-02-24T02:26:20.334Z,5.28
2023-02-24T02:29:25.943Z,4.03
2023-02-24T02:32:23.700Z,3.95
2023-02-24T02:35:02.898Z,4.82
2023-02-24T02:37:41.364Z,4.05
2023-02-24T02:40:23.400Z,4.65
2023-02-24T02:43:01.493Z,3.65
2023-02-24T02:45:40.217Z,4.90
2023-02-24T02:48:19.516Z,4.47
2023-02-24T02:50:54.991Z,3.63
2023-02-24T02:53:34.453Z,3.72
2023-02-24T02:56:11.967Z,4.53
2023-02-24T02:58:52.491Z,5.05
2023-02-24T03:01:29.245Z,4.93
2023-02-24T03:04:05.851Z,4.43
2023-02-24T03:06:44.404Z,3.95
2023-02-24T03:09:21.782Z,3.88
2023-02-24T03:12:01.616Z,5.22
2023-02-24T03:14:39.363Z,3.13
2023-02-24T03:17:20.951Z,3.53
2023-02-24T03:19:59.949Z,4.53
2023-02-24T03:22:38.701Z,4.05
2023-02-24T03:25:12.240Z,4.43
2023-02-24T03:27:50.237Z,4.07
2023-02-24T03:30:29.170Z,3.53
2023-02-24T03:33:09.588Z,3.60
2023-02-24T03:35:43.082Z,4.25
2023-02-24T03:38:16.178Z,4.68
2023-02-24T03:40:48.907Z,3.88
2023-02-24T03:43:31.872Z,3.67
2023-02-24T03:46:05.703Z,4.13
2023-02-24T03:48:44.205Z,4.10
2023-02-24T03:51:18.766Z,3.40
2023-02-24T03:54:08.331Z,4.03
2023-02-24T03:56:58.353Z,3.88
2023-02-24T03:59:44.704Z,3.92
2023-02-24T04:02:22.767Z,3.72
2023-02-24T04:05:02.248Z,4.22
2023-02-24T04:07:53.567Z,3.70
2023-02-24T04:10:36.412Z,3.75
2023-02-24T04:13:18.136Z,4.45
2023-02-24T04:15:58.695Z,3.97
2023-02-24T04:18:32.702Z,3.43
2023-02-24T04:21:06.446Z,3.83
2023-02-24T04:23:44.724Z,3.45
2023-02-24T04:26:20.219Z,3.65
2023-02-24T04:28:53.822Z,4.32
2023-02-24T04:31:28.435Z,4.78
2023-02-24T04:34:01.270Z,4.28
2023-02-24T04:36:40.956Z,3.08
2023-02-24T04:39:15.694Z,3.28
2023-02-24T04:41:49.489Z,3.50
2023-02-24T04:44:22.280Z,4.03
2023-02-24T04:46:55.372Z,3.88
2023-02-24T04:49:27.710Z,3.65
2023-02-24T04:52:00.144Z,3.45
2023-02-24T04:54:34.137Z,2.85
2023-02-24T04:57:09.887Z,3.88
2023-02-24T04:59:42.196Z,3.63
2023-02-24T05:02:16.618Z,3.70
2023-02-24T05:04:50.807Z,3.00
2023-02-24T05:07:23.088Z,3.28
2023-02-24T05:09:55.407Z,3.45
2023-02-24T05:12:28.844Z,4.03
2023-02-24T05:15:01.390Z,4.15
2023-02-24T05:17:34.593Z,3.08
2023-02-24T05:20:26.620Z,4.47
2023-02-24T05:22:59.139Z,4.80
2023-02-24T05:25:37.064Z,6.88
2023-02-24T05:28:10.580Z,6.18
2023-02-24T05:30:42.965Z,7.57
2023-02-24T05:33:15.345Z,19.48
2023-02-24T05:35:47.994Z,10.43
2023-02-24T05:38:20.617Z,6.28
2023-02-24T05:41:03.827Z,4.68
2023-02-24T05:43:38.505Z,26.30
2023-02-24T05:46:12.807Z,22.90
2023-02-24T05:48:46.415Z,7.50
2023-02-24T05:51:18.945Z,5.68
2023-02-24T05:53:54.859Z,5.82
2023-02-24T05:56:27.329Z,6.90
2023-02-24T05:59:01.554Z,9.32
2023-02-24T06:01:36.034Z,6.47
2023-02-24T06:04:09.609Z,6.30
2023-02-24T06:06:42.251Z,5.82
2023-02-24T06:09:14.526Z,4.93
2023-02-24T06:11:46.955Z,4.60
2023-02-24T06:14:21.578Z,5.93
2023-02-24T06:16:53.902Z,5.93
2023-02-24T06:19:26.333Z,6.47
2023-02-24T06:22:01.111Z,5.43
2023-02-24T06:24:33.516Z,6.15
2023-02-24T06:27:09.807Z,5.40
2023-02-24T06:29:43.168Z,6.28
2023-02-24T06:32:15.699Z,5.28
2023-02-24T06:34:48.089Z,6.47
2023-02-24T06:37:22.039Z,6.55
2023-02-24T06:39:54.301Z,6.85
2023-02-24T06:42:26.928Z,5.90
2023-02-24T06:44:59.897Z,5.47
2023-02-24T06:47:32.152Z,4.32
2023-02-24T06:50:06.554Z,5.47
2023-02-24T06:52:39.976Z,6.20
2023-02-24T06:55:24.488Z,7.57
2023-02-24T06:57:58.594Z,8.15
2023-02-24T07:00:38.081Z,6.88
2023-02-24T07:03:15.061Z,5.78
2023-02-24T07:05:49.907Z,5.68
2023-02-24T07:08:24.404Z,4.50
2023-02-24T07:10:59.197Z,4.72
2023-02-24T07:13:32.569Z,5.85
2023-02-24T07:16:06.659Z,5.95
2023-02-24T07:18:40.198Z,6.03
2023-02-24T07:21:12.480Z,6.60
2023-02-24T07:23:48.894Z,4.80
2023-02-24T07:26:22.423Z,6.93
2023-02-24T07:28:55.932Z,7.28
2023-02-24T07:31:29.201Z,6.70
2023-02-24T07:34:03.069Z,7.38
2023-02-24T07:36:48.333Z,7.43
2023-02-24T07:39:22.688Z,8.13
2023-02-24T07:41:55.015Z,5.28
2023-02-24T07:44:28.689Z,5.28
2023-02-24T07:47:06.897Z,6.10
2023-02-24T07:49:40.167Z,5.88
2023-02-24T07:52:12.482Z,6.32
2023-02-24T07:54:44.789Z,6.15
2023-02-24T07:57:18.215Z,7.57
2023-02-24T07:59:53.412Z,5.90
2023-02-24T08:02:28.524Z,6.50
2023-02-24T08:05:02.103Z,9.23
2023-02-24T08:07:34.897Z,9.55
2023-02-24T08:10:23.371Z,7.65
2023-02-24T08:13:02.294Z,8.30
2023-02-24T08:15:34.856Z,8.43
2023-02-24T08:18:08.853Z,8.15
2023-02-24T08:20:51.612Z,8.30
2023-02-24T08:23:24.996Z,8.48
2023-02-24T08:25:57.357Z,8.38
2023-02-24T08:28:29.766Z,8.68
2023-02-24T08:31:03.844Z,7.85
2023-02-24T08:33:36.970Z,9.05
2023-02-24T08:36:09.821Z,7.97
2023-02-24T08:38:44.218Z,8.00
2023-02-24T08:41:20.762Z,7.65
2023-02-24T08:43:53.297Z,7.68
2023-02-24T08:46:25.834Z,8.68
2023-02-24T08:49:00.245Z,7.80
2023-02-24T08:51:35.631Z,8.05
2023-02-24T08:54:14.544Z,8.85
2023-02-24T08:56:48.684Z,9.15
2023-02-24T08:59:36.737Z,8.95
2023-02-24T09:02:23.386Z,7.57
2023-02-24T09:04:58.982Z,8.07
2023-02-24T09:07:35.620Z,8.02
2023-02-24T09:10:16.956Z,8.52
2023-02-24T09:12:52.840Z,8.10
2023-02-24T09:15:40.534Z,7.10
2023-02-24T09:18:13.989Z,7.22
2023-02-24T09:20:55.608Z,9.27
2023-02-24T09:23:29.522Z,7.15
2023-02-24T09:26:10.332Z,7.82
2023-02-24T09:28:48.272Z,6.47
2023-02-24T09:31:23.406Z,6.22
2023-02-24T09:34:01.037Z,6.60
2023-02-24T09:36:44.203Z,5.90
2023-02-24T09:39:16.499Z,7.40
2023-02-24T09:41:56.033Z,8.48
2023-02-24T09:44:32.988Z,6.93
2023-02-24T09:47:13.453Z,6.50
2023-02-24T09:49:55.445Z,6.53
2023-02-24T09:52:40.554Z,8.10
2023-02-24T09:55:24.330Z,7.70
2023-02-24T09:58:27.038Z,7.43
2023-02-24T10:01:20.575Z,6.63
2023-02-24T10:04:08.772Z,6.63
2023-02-24T10:06:57.009Z,6.32
2023-02-24T10:09:34.097Z,7.20
2023-02-24T10:12:12.901Z,6.55
2023-02-24T10:14:52.181Z,6.70
2023-02-24T10:17:39.329Z,7.22
2023-02-24T10:20:30.197Z,6.88
2023-02-24T10:23:09.330Z,7.57
2023-02-24T10:25:53.087Z,6.28
2023-02-24T10:28:35.391Z,7.35
2023-02-24T10:31:24.378Z,7.20
2023-02-24T10:34:00.866Z,7.68
2023-02-24T10:36:34.818Z,6.88
2023-02-24T10:39:15.251Z,6.25
2023-02-24T10:41:56.453Z,6.15
2023-02-24T10:44:35.342Z,5.65
2023-02-24T10:47:12.916Z,6.35
2023-02-24T10:49:56.600Z,5.72
2023-02-24T10:52:52.545Z,6.05
2023-02-24T10:55:38.570Z,6.90
2023-02-24T10:58:15.412Z,6.05
2023-02-24T11:01:00.339Z,6.15
2023-02-24T11:03:41.343Z,6.70
2023-02-24T11:06:29.926Z,6.78
2023-02-24T11:09:18.530Z,5.38
2023-02-24T11:12:09.381Z,5.25
2023-02-24T11:15:09.330Z,6.13
2023-02-24T11:17:48.672Z,5.85
2023-02-24T11:20:42.519Z,5.43
2023-02-24T11:23:23.511Z,6.35
2023-02-24T11:26:00.490Z,6.40
2023-02-24T11:28:55.453Z,5.10
2023-02-24T11:31:45.330Z,5.32
2023-02-24T11:34:24.442Z,5.55
2023-02-24T11:37:06.027Z,6.03
2023-02-24T11:39:54.992Z,5.05
2023-02-24T11:42:32.480Z,5.28
2023-02-24T11:45:12.082Z,5.43
2023-02-24T11:47:50.247Z,6.32
2023-02-24T11:50:44.489Z,4.57
2023-02-24T11:53:31.488Z,4.97
2023-02-24T11:56:09.635Z,5.88
2023-02-24T11:58:50.326Z,5.30
2023-02-24T12:01:29.246Z,5.93
2023-02-24T12:04:13.150Z,5.90
2023-02-24T12:06:56.248Z,5.60
2023-02-24T12:09:33.401Z,5.78
2023-02-24T12:12:13.579Z,5.65
2023-02-24T12:14:51.627Z,4.90
2023-02-24T12:17:31.457Z,4.63
2023-02-24T12:20:15.941Z,6.15
2023-02-24T12:22:53.906Z,5.00
2023-02-24T12:25:29.621Z,5.13
2023-02-24T12:28:13.050Z,5.53
2023-02-24T12:30:56.817Z,6.25
2023-02-24T12:33:46.759Z,6.05
2023-02-24T12:36:31.043Z,6.22
2023-02-24T12:39:11.610Z,5.53
2023-02-24T12:41:58.343Z,6.35
2023-02-24T12:44:38.149Z,6.78
2023-02-24T12:47:13.576Z,8.20
2023-02-24T12:49:59.534Z,6.22
2023-02-24T12:52:41.434Z,6.07
2023-02-24T12:55:21.601Z,6.38
2023-02-24T12:58:02.262Z,6.47
2023-02-24T13:00:45.438Z,6.30
2023-02-24T13:03:39.216Z,5.32
2023-02-24T13:06:20.518Z,4.20
2023-02-24T13:09:01.787Z,6.40
2023-02-24T13:11:42.913Z,5.70
2023-02-24T13:14:24.437Z,4.93
2023-02-24T13:17:18.087Z,4.13
2023-02-24T13:19:51.973Z,5.88
2023-02-24T13:22:28.089Z,5.03
2023-02-24T13:25:18.474Z,5.78
2023-02-24T13:27:59.745Z,4.43
2023-02-24T13:30:43.609Z,4.80
2023-02-24T13:33:28.240Z,5.25
2023-02-24T13:36:14.393Z,4.95
2023-02-24T13:38:48.679Z,5.05
2023-02-24T13:41:39.892Z,5.32
2023-02-24T13:44:25.374Z,3.45
2023-02-24T13:47:28.443Z,3.53
2023-02-24T13:50:20.815Z,4.35
2023-02-24T13:53:09.786Z,5.22
2023-02-24T13:55:58.289Z,4.40
2023-02-24T13:58:54.104Z,4.22
2023-02-24T14:01:29.454Z,6.50
2023-02-24T14:04:09.991Z,6.60
2023-02-24T14:06:47.851Z,6.32
2023-02-24T14:09:24.682Z,8.27
2023-02-24T14:12:00.333Z,8.70
2023-02-24T14:14:33.768Z,7.15
2023-02-24T14:17:06.172Z,5.90
2023-02-24T14:19:38.654Z,8.07
2023-02-24T14:22:19.554Z,8.23
2023-02-24T14:25:02.031Z,7.90
2023-02-24T14:27:34.793Z,5.93
2023-02-24T14:30:24.749Z,7.75
2023-02-24T14:32:57.644Z,7.90
2023-02-24T14:35:36.759Z,8.30
2023-02-24T14:38:27.528Z,7.82
2023-02-24T14:41:00.847Z,7.60
2023-02-24T14:43:40.728Z,8.38
2023-02-24T14:46:15.685Z,7.43
2023-02-24T14:48:53.848Z,8.05
2023-02-24T14:51:32.273Z,8.98
2023-02-24T14:54:14.503Z,11.15
2023-02-24T14:56:47.256Z,10.43
2023-02-24T14:59:28.106Z,6.95
2023-02-24T15:02:04.107Z,7.80
2023-02-24T15:04:42.872Z,7.35
2023-02-24T15:07:18.120Z,8.30
2023-02-24T15:09:52.243Z,6.65
2023-02-24T15:12:30.658Z,8.18
2023-02-24T15:15:06.871Z,8.88
2023-02-24T15:17:40.700Z,8.13
2023-02-24T15:20:32.125Z,6.43
2023-02-24T15:23:05.000Z,7.25
2023-02-24T15:25:43.221Z,7.22
2023-02-24T15:28:25.224Z,6.47
2023-02-24T15:31:04.308Z,5.82
2023-02-24T15:33:39.940Z,6.40
2023-02-24T15:36:18.893Z,6.53
2023-02-24T15:38:53.246Z,6.03
2023-02-24T15:41:36.999Z,8.73
2023-02-24T15:44:27.221Z,6.97
2023-02-24T15:47:12.139Z,9.23
2023-02-24T15:49:45.103Z,10.23
2023-02-24T15:52:21.650Z,8.82
2023-02-24T15:54:54.441Z,10.57
2023-02-24T15:57:29.982Z,10.70
2023-02-24T16:00:08.354Z,6.88
2023-02-24T16:02:44.970Z,7.38
2023-02-24T16:05:18.142Z,6.10
2023-02-24T16:07:50.764Z,8.63
2023-02-24T16:10:25.872Z,8.48
2023-02-24T16:13:00.891Z,8.88
2023-02-24T16:15:37.155Z,7.30
2023-02-24T16:18:18.562Z,7.40
2023-02-24T16:20:54.784Z,6.78
2023-02-24T16:23:27.226Z,9.65
2023-02-24T16:25:59.877Z,8.13
2023-02-24T16:28:33.255Z,10.65
2023-02-24T16:31:06.685Z,7.78
2023-02-24T16:33:53.653Z,6.10
2023-02-24T16:36:28.186Z,8.23
2023-02-24T16:39:00.931Z,7.10
2023-02-24T16:41:33.344Z,10.05
2023-02-24T16:44:05.706Z,7.45
2023-02-24T16:46:40.893Z,6.05
2023-02-24T16:49:18.362Z,5.28
2023-02-24T16:51:51.323Z,5.68
2023-02-24T16:54:28.350Z,5.13
2023-02-24T16:57:00.943Z,6.07
2023-02-24T16:59:33.293Z,6.43
2023-02-24T17:02:05.765Z,4.80
2023-02-24T17:04:38.307Z,5.90
2023-02-24T17:07:11.347Z,6.07
2023-02-24T17:09:43.712Z,6.32
2023-02-24T17:12:21.814Z,4.50
2023-02-24T17:14:54.379Z,6.57
2023-02-24T17:17:26.754Z,7.25
2023-02-24T17:19:59.100Z,6.85
2023-02-24T17:22:32.401Z,6.20
2023-02-24T17:25:06.560Z,5.82
2023-02-24T17:27:38.898Z,7.75
2023-02-24T17:30:13.645Z,7.47
2023-02-24T17:32:46.204Z,8.40
2023-02-24T17:35:18.740Z,10.82
2023-02-24T17:37:51.820Z,9.30
2023-02-24T17:40:24.238Z,7.28
2023-02-24T17:42:56.579Z,7.10
2023-02-24T17:45:28.910Z,5.43
2023-02-24T17:48:01.525Z,5.72
2023-02-24T17:50:33.885Z,6.57
2023-02-24T17:53:07.032Z,5.80
2023-02-24T17:55:47.024Z,6.28
2023-02-24T17:58:28.532Z,5.93
2023-02-24T18:01:01.678Z,6.05
2023-02-24T18:03:35.593Z,5.55
2023-02-24T18:06:10.009Z,4.93
2023-02-24T18:08:43.067Z,5.28
2023-02-24T18:11:16.829Z,4.60
2023-02-24T18:13:51.917Z,4.75
2023-02-24T18:16:24.656Z,5.20
2023-02-24T18:18:57.215Z,4.47
2023-02-24T18:21:29.768Z,5.18
2023-02-24T18:24:03.182Z,5.93
2023-02-24T18:26:36.134Z,4.78
2023-02-24T18:29:08.609Z,6.35
2023-02-24T18:31:41.295Z,5.90
2023-02-24T18:34:13.719Z,4.95
2023-02-24T18:36:46.058Z,4.10
2023-02-24T18:39:18.989Z,4.75
2023-02-24T18:41:51.356Z,5.00
2023-02-24T18:44:24.035Z,5.35
2023-02-24T18:46:56.668Z,4.38
2023-02-24T18:49:28.992Z,6.07
2023-02-24T18:52:01.849Z,5.35
2023-02-24T18:54:34.857Z,4.57
2023-02-24T18:57:07.167Z,5.53
2023-02-24T18:59:39.622Z,5.15
2023-02-24T19:02:11.943Z,4.85
2023-02-24T19:04:45.242Z,4.03
2023-02-24T19:07:17.540Z,5.00
2023-02-24T19:09:50.610Z,3.67
2023-02-24T19:12:23.432Z,4.55
2023-02-24T19:14:55.751Z,5.68
2023-02-24T19:17:28.099Z,5.50
2023-02-24T19:20:00.405Z,6.60
2023-02-24T19:22:32.776Z,5.63
2023-02-24T19:25:06.228Z,6.35
2023-02-24T19:27:38.775Z,6.30
2023-02-24T19:30:11.697Z,5.28
2023-02-24T19:32:44.232Z,4.95
2023-02-24T19:35:17.098Z,4.50
2023-02-24T19:37:49.522Z,4.18
2023-02-24T19:40:23.306Z,5.93
2023-02-24T19:42:55.604Z,4.40
2023-02-24T19:45:27.999Z,5.35
2023-02-24T19:48:00.340Z,4.60
2023-02-24T19:50:32.864Z,5.85
2023-02-24T19:53:05.206Z,4.32
2023-02-24T19:55:38.351Z,5.75
2023-02-24T19:58:10.637Z,4.78
2023-02-24T20:00:42.995Z,4.95
2023-02-24T20:03:15.811Z,4.63
2023-02-24T20:05:48.198Z,5.28
2023-02-24T20:08:20.608Z,4.38
2023-02-24T20:10:59.864Z,5.03
2023-02-24T20:13:32.194Z,5.57
2023-02-24T20:16:06.413Z,5.60
2023-02-24T20:18:39.493Z,5.07
2023-02-24T20:21:12.976Z,4.20
2023-02-24T20:23:45.319Z,5.68
2023-02-24T20:26:19.077Z,5.07
2023-02-24T20:28:51.376Z,4.82
2023-02-24T20:31:23.873Z,5.30
2023-02-24T20:33:56.355Z,4.28
2023-02-24T20:36:29.147Z,5.50
2023-02-24T20:39:01.874Z,4.18
2023-02-24T20:41:34.856Z,6.10
2023-02-24T20:44:07.321Z,5.40
2023-02-24T20:46:39.888Z,5.05
2023-02-24T20:49:14.164Z,6.15
2023-02-24T20:51:46.783Z,4.80
2023-02-24T20:54:19.181Z,5.35
2023-02-24T20:56:52.148Z,4.38
2023-02-24T20:59:24.440Z,4.78
2023-02-24T21:01:56.745Z,6.00
2023-02-24T21:04:29.088Z,5.20
2023-02-24T21:07:02.121Z,5.22
2023-02-24T21:09:36.420Z,5.20
2023-02-24T21:12:09.369Z,5.43
2023-02-24T21:14:42.830Z,4.53
2023-02-24T21:17:15.169Z,5.57
2023-02-24T21:19:47.492Z,6.38
2023-02-24T21:22:19.779Z,5.20
2023-02-24T21:24:52.067Z,5.05
2023-02-24T21:27:25.198Z,5.97
2023-02-24T21:29:57.484Z,5.45
2023-02-24T21:32:29.878Z,6.53
2023-02-24T21:35:03.008Z,5.93
2023-02-24T21:37:35.330Z,5.45
2023-02-24T21:40:10.780Z,6.97
2023-02-24T21:42:46.313Z,5.68
2023-02-24T21:45:18.844Z,5.57
2023-02-24T21:47:51.167Z,6.18
2023-02-24T21:50:23.592Z,5.55
2023-02-24T21:52:55.900Z,5.75
2023-02-24T21:55:28.280Z,5.75
2023-02-24T21:58:01.291Z,5.97
2023-02-24T22:00:33.635Z,5.55
2023-02-24T22:03:07.119Z,5.18
2023-02-24T22:05:39.485Z,5.32
2023-02-24T22:08:11.790Z,6.90
2023-02-24T22:10:44.130Z,7.13
2023-02-24T22:13:17.071Z,5.45
2023-02-24T22:15:49.364Z,7.75
2023-02-24T22:18:21.738Z,6.38
2023-02-24T22:20:54.056Z,6.00
2023-02-24T22:23:26.425Z,5.53
2023-02-24T22:26:02.505Z,5.57
2023-02-24T22:28:37.857Z,6.05
2023-02-24T22:31:12.810Z,5.68
2023-02-24T22:33:45.816Z,5.13
2023-02-24T22:36:20.241Z,4.97
2023-02-24T22:38:54.230Z,5.00
2023-02-24T22:41:30.378Z,5.95
2023-02-24T22:44:04.693Z,5.13
2023-02-24T22:46:38.214Z,7.22
2023-02-24T22:49:11.055Z,5.85
2023-02-24T22:51:43.358Z,6.45
2023-02-24T22:54:15.788Z,6.20
2023-02-24T22:56:48.457Z,5.97
2023-02-24T22:59:21.504Z,4.93
2023-02-24T23:01:53.873Z,4.63
2023-02-24T23:04:28.493Z,5.65
2023-02-24T23:07:01.515Z,6.07
2023-02-24T23:09:33.970Z,6.07
2023-02-24T23:12:06.750Z,5.28
2023-02-24T23:14:39.741Z,6.32
2023-02-24T23:17:12.471Z,6.03
2023-02-24T23:19:44.763Z,6.97
2023-02-24T23:22:18.370Z,5.60
2023-02-24T23:24:50.778Z,5.70
2023-02-24T23:27:23.110Z,5.32
2023-02-24T23:29:56.092Z,6.20
2023-02-24T23:32:28.413Z,6.43
2023-02-24T23:35:00.990Z,6.13
2023-02-24T23:37:33.344Z,5.70
2023-02-24T23:40:08.291Z,6.15
2023-02-24T23:42:40.841Z,5.20
2023-02-24T23:45:13.829Z,5.97
2023-02-24T23:47:46.115Z,5.60
2023-02-24T23:50:18.827Z,6.00
2023-02-24T23:52:51.121Z,5.43
2023-02-24T23:55:23.794Z,5.53
2023-02-24T23:57:56.108Z,6.53
